sensor_id;sensor_type;location;lat;lon;timestamp;P1;durP1;ratioP1;P2;durP2;ratioP2
12675;SDS011;63820;65.654;21.944;2023-07-29T00:02:21;4.90;;;4.47;;
12675;SDS011;63820;65.654;21.944;2023-07-29T00:05:06;4.60;;;4.20;;
12675;SDS011;63820;65.654;21.944;2023-07-29T00:07:50;4.87;;;4.47;;
12675;SDS011;63820;65.654;21.944;2023-07-29T00:10:38;6.80;;;4.60;;
12675;SDS011;63820;65.654;21.944;2023-07-29T00:13:22;4.80;;;4.23;;
12675;SDS011;63820;65.654;21.944;2023-07-29T00:16:06;5.50;;;4.10;;
12675;SDS011;63820;65.654;21.944;2023-07-29T00:18:51;4.53;;;4.13;;
12675;SDS011;63820;65.654;21.944;2023-07-29T00:21:35;4.80;;;4.10;;
12675;SDS011;63820;65.654;21.944;2023-07-29T00:24:19;5.43;;;4.20;;
12675;SDS011;63820;65.654;21.944;2023-07-29T00:27:03;5.50;;;4.07;;
12675;SDS011;63820;65.654;21.944;2023-07-29T00:29:46;4.93;;;4.43;;
12675;SDS011;63820;65.654;21.944;2023-07-29T00:32:31;5.90;;;4.67;;
12675;SDS011;63820;65.654;21.944;2023-07-29T00:35:14;4.63;;;4.13;;
12675;SDS011;63820;65.654;21.944;2023-07-29T00:37:59;7.40;;;4.30;;
12675;SDS011;63820;65.654;21.944;2023-07-29T00:40:43;5.23;;;4.73;;
12675;SDS011;63820;65.654;21.944;2023-07-29T00:43:26;4.83;;;4.33;;
12675;SDS011;63820;65.654;21.944;2023-07-29T00:46:10;4.70;;;4.30;;
12675;SDS011;63820;65.654;21.944;2023-07-29T00:48:56;5.13;;;4.63;;
12675;SDS011;63820;65.654;21.944;2023-07-29T00:51:40;4.93;;;4.43;;
12675;SDS011;63820;65.654;21.944;2023-07-29T00:54:24;5.50;;;4.40;;
12675;SDS011;63820;65.654;21.944;2023-07-29T00:57:10;4.40;;;4.00;;
12675;SDS011;63820;65.654;21.944;2023-07-29T00:59:57;4.30;;;3.90;;
12675;SDS011;63820;65.654;21.944;2023-07-29T01:02:43;4.90;;;4.00;;
12675;SDS011;63820;65.654;21.944;2023-07-29T01:05:33;4.23;;;3.80;;
12675;SDS011;63820;65.654;21.944;2023-07-29T01:08:46;5.43;;;4.07;;
12675;SDS011;63820;65.654;21.944;2023-07-29T01:14:41;5.47;;;3.87;;
12675;SDS011;63820;65.654;21.944;2023-07-29T01:17:49;4.20;;;3.70;;
12675;SDS011;63820;65.654;21.944;2023-07-29T01:20:38;4.57;;;4.13;;
12675;SDS011;63820;65.654;21.944;2023-07-29T01:23:35;4.30;;;3.90;;
12675;SDS011;63820;65.654;21.944;2023-07-29T01:26:20;4.57;;;4.10;;
12675;SDS011;63820;65.654;21.944;2023-07-29T01:29:04;4.50;;;4.10;;
12675;SDS011;63820;65.654;21.944;2023-07-29T01:31:48;4.00;;;3.60;;
12675;SDS011;63820;65.654;21.944;2023-07-29T01:38:05;4.30;;;3.90;;
12675;SDS011;63820;65.654;21.944;2023-07-29T01:40:53;4.30;;;3.90;;
12675;SDS011;63820;65.654;21.944;2023-07-29T01:43:37;3.87;;;3.57;;
12675;SDS011;63820;65.654;21.944;2023-07-29T01:46:27;4.20;;;3.90;;
12675;SDS011;63820;65.654;21.944;2023-07-29T01:49:11;4.80;;;4.40;;
12675;SDS011;63820;65.654;21.944;2023-07-29T01:51:56;4.90;;;3.80;;
12675;SDS011;63820;65.654;21.944;2023-07-29T01:54:40;4.60;;;4.17;;
12675;SDS011;63820;65.654;21.944;2023-07-29T01:57:24;4.13;;;3.73;;
12675;SDS011;63820;65.654;21.944;2023-07-29T02:00:08;4.47;;;4.07;;
12675;SDS011;63820;65.654;21.944;2023-07-29T02:02:52;4.40;;;4.00;;
12675;SDS011;63820;65.654;21.944;2023-07-29T02:05:36;5.63;;;4.20;;
12675;SDS011;63820;65.654;21.944;2023-07-29T02:08:20;4.80;;;4.30;;
12675;SDS011;63820;65.654;21.944;2023-07-29T02:11:04;4.50;;;4.10;;
12675;SDS011;63820;65.654;21.944;2023-07-29T02:13:48;4.30;;;3.90;;
12675;SDS011;63820;65.654;21.944;2023-07-29T02:16:32;4.07;;;3.67;;
12675;SDS011;63820;65.654;21.944;2023-07-29T02:19:18;3.83;;;3.53;;
12675;SDS011;63820;65.654;21.944;2023-07-29T02:22:02;5.93;;;4.33;;
12675;SDS011;63820;65.654;21.944;2023-07-29T02:24:46;6.90;;;4.63;;
12675;SDS011;63820;65.654;21.944;2023-07-29T02:27:30;5.43;;;4.17;;
12675;SDS011;63820;65.654;21.944;2023-07-29T02:30:14;4.90;;;4.17;;
12675;SDS011;63820;65.654;21.944;2023-07-29T02:32:59;7.50;;;5.03;;
12675;SDS011;63820;65.654;21.944;2023-07-29T02:35:44;4.93;;;4.43;;
12675;SDS011;63820;65.654;21.944;2023-07-29T02:38:28;4.87;;;4.37;;
12675;SDS011;63820;65.654;21.944;2023-07-29T02:41:12;5.27;;;4.77;;
12675;SDS011;63820;65.654;21.944;2023-07-29T02:43:56;8.17;;;5.00;;
12675;SDS011;63820;65.654;21.944;2023-07-29T02:46:40;6.20;;;5.60;;
12675;SDS011;63820;65.654;21.944;2023-07-29T02:49:24;6.83;;;5.60;;
12675;SDS011;63820;65.654;21.944;2023-07-29T02:52:08;7.43;;;5.63;;
12675;SDS011;63820;65.654;21.944;2023-07-29T02:54:52;9.47;;;6.33;;
12675;SDS011;63820;65.654;21.944;2023-07-29T02:57:36;6.27;;;5.40;;
12675;SDS011;63820;65.654;21.944;2023-07-29T03:00:20;7.80;;;5.40;;
12675;SDS011;63820;65.654;21.944;2023-07-29T03:03:04;7.70;;;5.87;;
12675;SDS011;63820;65.654;21.944;2023-07-29T03:05:48;8.47;;;5.97;;
12675;SDS011;63820;65.654;21.944;2023-07-29T03:08:32;6.23;;;5.60;;
12675;SDS011;63820;65.654;21.944;2023-07-29T03:11:16;8.23;;;5.97;;
12675;SDS011;63820;65.654;21.944;2023-07-29T03:14:00;7.47;;;6.27;;
12675;SDS011;63820;65.654;21.944;2023-07-29T03:16:45;6.10;;;5.50;;
12675;SDS011;63820;65.654;21.944;2023-07-29T03:19:29;7.63;;;5.90;;
12675;SDS011;63820;65.654;21.944;2023-07-29T03:22:14;8.17;;;6.10;;
12675;SDS011;63820;65.654;21.944;2023-07-29T03:24:58;8.10;;;5.70;;
12675;SDS011;63820;65.654;21.944;2023-07-29T03:27:42;5.93;;;5.30;;
12675;SDS011;63820;65.654;21.944;2023-07-29T03:30:26;7.23;;;5.90;;
12675;SDS011;63820;65.654;21.944;2023-07-29T03:33:10;7.83;;;5.53;;
12675;SDS011;63820;65.654;21.944;2023-07-29T03:35:54;9.07;;;6.00;;
12675;SDS011;63820;65.654;21.944;2023-07-29T03:38:37;6.60;;;5.60;;
12675;SDS011;63820;65.654;21.944;2023-07-29T03:41:23;8.23;;;6.23;;
12675;SDS011;63820;65.654;21.944;2023-07-29T03:44:07;6.97;;;6.00;;
12675;SDS011;63820;65.654;21.944;2023-07-29T03:46:51;7.07;;;5.43;;
12675;SDS011;63820;65.654;21.944;2023-07-29T03:49:35;7.10;;;6.07;;
12675;SDS011;63820;65.654;21.944;2023-07-29T03:52:19;7.47;;;6.77;;
12675;SDS011;63820;65.654;21.944;2023-07-29T03:55:04;10.23;;;6.60;;
12675;SDS011;63820;65.654;21.944;2023-07-29T03:57:48;7.43;;;6.63;;
12675;SDS011;63820;65.654;21.944;2023-07-29T04:00:32;7.00;;;6.23;;
12675;SDS011;63820;65.654;21.944;2023-07-29T04:03:17;8.30;;;6.57;;
12675;SDS011;63820;65.654;21.944;2023-07-29T04:06:01;7.30;;;6.27;;
12675;SDS011;63820;65.654;21.944;2023-07-29T04:08:45;7.70;;;6.37;;
12675;SDS011;63820;65.654;21.944;2023-07-29T04:11:29;8.03;;;6.60;;
12675;SDS011;63820;65.654;21.944;2023-07-29T04:14:13;7.70;;;6.50;;
12675;SDS011;63820;65.654;21.944;2023-07-29T04:16:57;8.67;;;6.30;;
12675;SDS011;63820;65.654;21.944;2023-07-29T04:19:41;6.33;;;5.33;;
12675;SDS011;63820;65.654;21.944;2023-07-29T04:22:25;6.37;;;5.77;;
12675;SDS011;63820;65.654;21.944;2023-07-29T04:25:09;6.93;;;5.60;;
12675;SDS011;63820;65.654;21.944;2023-07-29T04:27:53;6.80;;;5.90;;
12675;SDS011;63820;65.654;21.944;2023-07-29T04:30:38;7.97;;;6.40;;
12675;SDS011;63820;65.654;21.944;2023-07-29T04:33:22;7.23;;;5.97;;
12675;SDS011;63820;65.654;21.944;2023-07-29T04:36:06;7.13;;;6.43;;
12675;SDS011;63820;65.654;21.944;2023-07-29T04:38:50;8.13;;;6.33;;
12675;SDS011;63820;65.654;21.944;2023-07-29T04:41:34;8.03;;;6.60;;
12675;SDS011;63820;65.654;21.944;2023-07-29T04:44:18;6.43;;;5.67;;
12675;SDS011;63820;65.654;21.944;2023-07-29T04:47:02;7.63;;;5.63;;
12675;SDS011;63820;65.654;21.944;2023-07-29T04:49:47;7.57;;;6.37;;
12675;SDS011;63820;65.654;21.944;2023-07-29T04:52:30;7.50;;;6.07;;
12675;SDS011;63820;65.654;21.944;2023-07-29T04:55:15;6.57;;;5.87;;
12675;SDS011;63820;65.654;21.944;2023-07-29T04:57:58;6.57;;;5.57;;
12675;SDS011;63820;65.654;21.944;2023-07-29T05:00:45;7.13;;;6.03;;
12675;SDS011;63820;65.654;21.944;2023-07-29T05:03:30;6.10;;;5.50;;
12675;SDS011;63820;65.654;21.944;2023-07-29T05:06:14;7.67;;;5.80;;
12675;SDS011;63820;65.654;21.944;2023-07-29T05:08:58;7.27;;;5.90;;
12675;SDS011;63820;65.654;21.944;2023-07-29T05:11:42;7.03;;;6.33;;
12675;SDS011;63820;65.654;21.944;2023-07-29T05:14:29;6.77;;;6.07;;
12675;SDS011;63820;65.654;21.944;2023-07-29T05:17:13;6.70;;;6.10;;
12675;SDS011;63820;65.654;21.944;2023-07-29T05:19:57;6.93;;;6.17;;
12675;SDS011;63820;65.654;21.944;2023-07-29T05:22:41;6.50;;;5.80;;
12675;SDS011;63820;65.654;21.944;2023-07-29T05:25:25;6.73;;;6.03;;
12675;SDS011;63820;65.654;21.944;2023-07-29T05:28:09;7.33;;;6.37;;
12675;SDS011;63820;65.654;21.944;2023-07-29T05:30:53;6.57;;;5.87;;
12675;SDS011;63820;65.654;21.944;2023-07-29T05:33:37;6.80;;;6.07;;
12675;SDS011;63820;65.654;21.944;2023-07-29T05:36:21;7.00;;;6.10;;
12675;SDS011;63820;65.654;21.944;2023-07-29T05:39:05;6.50;;;5.90;;
12675;SDS011;63820;65.654;21.944;2023-07-29T05:41:49;6.50;;;5.90;;
12675;SDS011;63820;65.654;21.944;2023-07-29T05:44:33;6.60;;;5.57;;
12675;SDS011;63820;65.654;21.944;2023-07-29T05:47:17;7.70;;;6.73;;
12675;SDS011;63820;65.654;21.944;2023-07-29T05:50:02;10.03;;;5.93;;
12675;SDS011;63820;65.654;21.944;2023-07-29T05:52:48;6.87;;;6.17;;
12675;SDS011;63820;65.654;21.944;2023-07-29T05:55:32;6.87;;;5.83;;
12675;SDS011;63820;65.654;21.944;2023-07-29T05:58:16;9.33;;;5.53;;
12675;SDS011;63820;65.654;21.944;2023-07-29T06:01:00;6.70;;;6.07;;
12675;SDS011;63820;65.654;21.944;2023-07-29T06:03:44;6.63;;;5.63;;
12675;SDS011;63820;65.654;21.944;2023-07-29T06:06:28;6.93;;;5.80;;
12675;SDS011;63820;65.654;21.944;2023-07-29T06:09:13;6.80;;;6.00;;
12675;SDS011;63820;65.654;21.944;2023-07-29T06:11:57;6.53;;;5.93;;
12675;SDS011;63820;65.654;21.944;2023-07-29T06:14:41;6.97;;;5.63;;
12675;SDS011;63820;65.654;21.944;2023-07-29T06:17:24;6.03;;;5.43;;
12675;SDS011;63820;65.654;21.944;2023-07-29T06:20:09;7.03;;;5.57;;
12675;SDS011;63820;65.654;21.944;2023-07-29T06:22:53;6.43;;;5.60;;
12675;SDS011;63820;65.654;21.944;2023-07-29T06:25:37;7.97;;;5.40;;
12675;SDS011;63820;65.654;21.944;2023-07-29T06:28:21;6.57;;;5.97;;
12675;SDS011;63820;65.654;21.944;2023-07-29T06:31:05;5.87;;;5.27;;
12675;SDS011;63820;65.654;21.944;2023-07-29T06:33:49;6.87;;;5.30;;
12675;SDS011;63820;65.654;21.944;2023-07-29T06:36:33;5.43;;;4.93;;
12675;SDS011;63820;65.654;21.944;2023-07-29T06:39:17;5.43;;;4.93;;
12675;SDS011;63820;65.654;21.944;2023-07-29T06:42:01;6.23;;;5.47;;
12675;SDS011;63820;65.654;21.944;2023-07-29T06:44:45;5.60;;;4.93;;
12675;SDS011;63820;65.654;21.944;2023-07-29T06:47:30;6.13;;;5.17;;
12675;SDS011;63820;65.654;21.944;2023-07-29T06:50:13;6.53;;;5.50;;
12675;SDS011;63820;65.654;21.944;2023-07-29T06:52:58;6.30;;;5.50;;
12675;SDS011;63820;65.654;21.944;2023-07-29T06:55:42;6.03;;;5.30;;
12675;SDS011;63820;65.654;21.944;2023-07-29T06:58:27;10.37;;;5.57;;
12675;SDS011;63820;65.654;21.944;2023-07-29T07:01:11;6.50;;;5.63;;
12675;SDS011;63820;65.654;21.944;2023-07-29T07:03:55;6.13;;;5.40;;
12675;SDS011;63820;65.654;21.944;2023-07-29T07:06:42;5.63;;;5.10;;
12675;SDS011;63820;65.654;21.944;2023-07-29T07:09:26;6.40;;;5.80;;
12675;SDS011;63820;65.654;21.944;2023-07-29T07:12:10;7.20;;;5.63;;
12675;SDS011;63820;65.654;21.944;2023-07-29T07:14:54;6.53;;;5.40;;
12675;SDS011;63820;65.654;21.944;2023-07-29T07:17:39;6.30;;;5.70;;
12675;SDS011;63820;65.654;21.944;2023-07-29T07:20:23;5.40;;;4.87;;
12675;SDS011;63820;65.654;21.944;2023-07-29T07:23:07;6.23;;;5.63;;
12675;SDS011;63820;65.654;21.944;2023-07-29T07:25:54;7.77;;;5.83;;
12675;SDS011;63820;65.654;21.944;2023-07-29T07:28:39;6.07;;;5.47;;
12675;SDS011;63820;65.654;21.944;2023-07-29T07:31:22;6.57;;;5.50;;
12675;SDS011;63820;65.654;21.944;2023-07-29T07:34:06;5.33;;;4.80;;
12675;SDS011;63820;65.654;21.944;2023-07-29T07:36:50;6.27;;;5.20;;
12675;SDS011;63820;65.654;21.944;2023-07-29T07:39:34;5.40;;;4.90;;
12675;SDS011;63820;65.654;21.944;2023-07-29T07:42:18;5.50;;;5.00;;
12675;SDS011;63820;65.654;21.944;2023-07-29T07:45:02;5.63;;;4.80;;
12675;SDS011;63820;65.654;21.944;2023-07-29T07:47:47;5.87;;;5.07;;
12675;SDS011;63820;65.654;21.944;2023-07-29T07:50:31;5.97;;;4.97;;
12675;SDS011;63820;65.654;21.944;2023-07-29T07:53:15;5.20;;;4.70;;
12675;SDS011;63820;65.654;21.944;2023-07-29T07:55:59;5.13;;;4.73;;
12675;SDS011;63820;65.654;21.944;2023-07-29T07:58:43;5.63;;;4.57;;
12675;SDS011;63820;65.654;21.944;2023-07-29T08:01:27;5.40;;;4.90;;
12675;SDS011;63820;65.654;21.944;2023-07-29T08:04:11;5.10;;;4.70;;
12675;SDS011;63820;65.654;21.944;2023-07-29T08:06:55;5.30;;;4.60;;
12675;SDS011;63820;65.654;21.944;2023-07-29T08:09:39;4.90;;;4.40;;
12675;SDS011;63820;65.654;21.944;2023-07-29T08:12:23;5.07;;;4.57;;
12675;SDS011;63820;65.654;21.944;2023-07-29T08:15:07;4.87;;;4.43;;
12675;SDS011;63820;65.654;21.944;2023-07-29T08:17:51;5.33;;;4.83;;
12675;SDS011;63820;65.654;21.944;2023-07-29T08:20:35;5.33;;;4.70;;
12675;SDS011;63820;65.654;21.944;2023-07-29T08:23:19;4.70;;;4.20;;
12675;SDS011;63820;65.654;21.944;2023-07-29T08:26:04;5.10;;;4.60;;
12675;SDS011;63820;65.654;21.944;2023-07-29T08:28:49;4.90;;;4.40;;
12675;SDS011;63820;65.654;21.944;2023-07-29T08:31:33;5.20;;;4.23;;
12675;SDS011;63820;65.654;21.944;2023-07-29T08:34:17;5.10;;;4.57;;
12675;SDS011;63820;65.654;21.944;2023-07-29T08:37:01;4.83;;;4.40;;
12675;SDS011;63820;65.654;21.944;2023-07-29T08:39:45;5.47;;;4.20;;
12675;SDS011;63820;65.654;21.944;2023-07-29T08:42:31;4.83;;;4.33;;
12675;SDS011;63820;65.654;21.944;2023-07-29T08:45:16;5.60;;;4.53;;
12675;SDS011;63820;65.654;21.944;2023-07-29T08:48:02;5.07;;;4.37;;
12675;SDS011;63820;65.654;21.944;2023-07-29T08:50:50;5.87;;;4.40;;
12675;SDS011;63820;65.654;21.944;2023-07-29T08:53:39;4.57;;;4.17;;
12675;SDS011;63820;65.654;21.944;2023-07-29T08:56:24;5.40;;;4.10;;
12675;SDS011;63820;65.654;21.944;2023-07-29T08:59:10;5.40;;;4.30;;
12675;SDS011;63820;65.654;21.944;2023-07-29T09:01:54;4.47;;;4.07;;
12675;SDS011;63820;65.654;21.944;2023-07-29T09:04:42;4.50;;;4.10;;
12675;SDS011;63820;65.654;21.944;2023-07-29T09:07:26;4.10;;;3.70;;
12675;SDS011;63820;65.654;21.944;2023-07-29T09:10:12;4.70;;;4.30;;
12675;SDS011;63820;65.654;21.944;2023-07-29T09:12:57;4.63;;;4.23;;
12675;SDS011;63820;65.654;21.944;2023-07-29T09:15:41;4.87;;;4.03;;
12675;SDS011;63820;65.654;21.944;2023-07-29T09:18:26;4.40;;;4.00;;
12675;SDS011;63820;65.654;21.944;2023-07-29T09:21:12;5.93;;;4.13;;
12675;SDS011;63820;65.654;21.944;2023-07-29T09:24:02;4.63;;;4.23;;
12675;SDS011;63820;65.654;21.944;2023-07-29T09:26:48;5.00;;;4.33;;
12675;SDS011;63820;65.654;21.944;2023-07-29T09:29:35;4.73;;;4.10;;
12675;SDS011;63820;65.654;21.944;2023-07-29T09:32:23;5.97;;;4.23;;
12675;SDS011;63820;65.654;21.944;2023-07-29T09:35:12;4.80;;;4.17;;
12675;SDS011;63820;65.654;21.944;2023-07-29T09:37:56;4.83;;;4.10;;
12675;SDS011;63820;65.654;21.944;2023-07-29T09:40:41;4.20;;;3.50;;
12675;SDS011;63820;65.654;21.944;2023-07-29T09:43:26;4.30;;;3.90;;
12675;SDS011;63820;65.654;21.944;2023-07-29T09:46:13;4.23;;;3.83;;
12675;SDS011;63820;65.654;21.944;2023-07-29T09:48:57;4.13;;;3.40;;
12675;SDS011;63820;65.654;21.944;2023-07-29T09:51:41;3.83;;;3.53;;
12675;SDS011;63820;65.654;21.944;2023-07-29T09:54:25;3.80;;;3.50;;
12675;SDS011;63820;65.654;21.944;2023-07-29T09:57:10;5.70;;;3.77;;
12675;SDS011;63820;65.654;21.944;2023-07-29T09:59:55;3.53;;;3.23;;
12675;SDS011;63820;65.654;21.944;2023-07-29T10:02:40;4.07;;;3.37;;
12675;SDS011;63820;65.654;21.944;2023-07-29T10:05:26;4.87;;;3.77;;
12675;SDS011;63820;65.654;21.944;2023-07-29T10:08:11;4.43;;;3.47;;
12675;SDS011;63820;65.654;21.944;2023-07-29T10:10:58;4.33;;;3.70;;
12675;SDS011;63820;65.654;21.944;2023-07-29T10:13:43;3.53;;;3.23;;
12675;SDS011;63820;65.654;21.944;2023-07-29T10:16:29;4.67;;;3.57;;
12675;SDS011;63820;65.654;21.944;2023-07-29T10:19:13;5.03;;;3.63;;
12675;SDS011;63820;65.654;21.944;2023-07-29T10:22:00;3.33;;;3.03;;
12675;SDS011;63820;65.654;21.944;2023-07-29T10:24:47;3.83;;;3.53;;
12675;SDS011;63820;65.654;21.944;2023-07-29T10:27:40;3.67;;;3.37;;
12675;SDS011;63820;65.654;21.944;2023-07-29T10:30:27;3.57;;;3.27;;
12675;SDS011;63820;65.654;21.944;2023-07-29T10:33:12;3.70;;;3.40;;
12675;SDS011;63820;65.654;21.944;2023-07-29T10:35:56;4.23;;;3.27;;
12675;SDS011;63820;65.654;21.944;2023-07-29T10:38:40;3.53;;;3.20;;
12675;SDS011;63820;65.654;21.944;2023-07-29T10:41:28;4.60;;;3.50;;
12675;SDS011;63820;65.654;21.944;2023-07-29T10:44:48;3.50;;;3.20;;
12675;SDS011;63820;65.654;21.944;2023-07-29T10:47:33;5.00;;;2.90;;
12675;SDS011;63820;65.654;21.944;2023-07-29T10:50:21;3.47;;;3.10;;
12675;SDS011;63820;65.654;21.944;2023-07-29T10:53:06;4.43;;;2.70;;
12675;SDS011;63820;65.654;21.944;2023-07-29T10:55:50;3.03;;;2.83;;
12675;SDS011;63820;65.654;21.944;2023-07-29T10:58:35;3.57;;;2.87;;
12675;SDS011;63820;65.654;21.944;2023-07-29T11:01:29;3.37;;;3.07;;
12675;SDS011;63820;65.654;21.944;2023-07-29T11:12:35;3.67;;;3.37;;
12675;SDS011;63820;65.654;21.944;2023-07-29T11:15:24;3.93;;;3.40;;
12675;SDS011;63820;65.654;21.944;2023-07-29T11:18:09;4.17;;;3.37;;
12675;SDS011;63820;65.654;21.944;2023-07-29T11:20:55;3.23;;;2.93;;
12675;SDS011;63820;65.654;21.944;2023-07-29T11:23:40;4.07;;;2.90;;
12675;SDS011;63820;65.654;21.944;2023-07-29T11:26:24;3.40;;;3.10;;
12675;SDS011;63820;65.654;21.944;2023-07-29T11:29:09;3.37;;;3.07;;
12675;SDS011;63820;65.654;21.944;2023-07-29T11:31:53;3.17;;;2.87;;
12675;SDS011;63820;65.654;21.944;2023-07-29T11:34:38;3.03;;;2.73;;
12675;SDS011;63820;65.654;21.944;2023-07-29T11:37:23;3.33;;;3.03;;
12675;SDS011;63820;65.654;21.944;2023-07-29T11:40:07;3.37;;;2.77;;
12675;SDS011;63820;65.654;21.944;2023-07-29T11:42:55;2.60;;;2.40;;
12675;SDS011;63820;65.654;21.944;2023-07-29T11:45:40;3.20;;;2.57;;
12675;SDS011;63820;65.654;21.944;2023-07-29T11:48:28;2.75;;;2.10;;
12675;SDS011;63820;65.654;21.944;2023-07-29T11:51:17;2.25;;;2.05;;
12675;SDS011;63820;65.654;21.944;2023-07-29T11:54:01;1.95;;;1.67;;
12675;SDS011;63820;65.654;21.944;2023-07-29T11:56:45;2.47;;;2.10;;
12675;SDS011;63820;65.654;21.944;2023-07-29T11:59:29;2.42;;;1.73;;
12675;SDS011;63820;65.654;21.944;2023-07-29T12:02:15;2.15;;;1.50;;
12675;SDS011;63820;65.654;21.944;2023-07-29T12:05:01;2.73;;;1.50;;
12675;SDS011;63820;65.654;21.944;2023-07-29T12:07:48;1.73;;;1.63;;
12675;SDS011;63820;65.654;21.944;2023-07-29T12:10:32;1.73;;;1.30;;
12675;SDS011;63820;65.654;21.944;2023-07-29T12:13:18;1.90;;;1.47;;
12675;SDS011;63820;65.654;21.944;2023-07-29T12:16:02;1.77;;;1.67;;
12675;SDS011;63820;65.654;21.944;2023-07-29T12:18:47;1.27;;;1.17;;
12675;SDS011;63820;65.654;21.944;2023-07-29T12:21:34;2.53;;;1.50;;
12675;SDS011;63820;65.654;21.944;2023-07-29T12:24:19;1.40;;;1.30;;
12675;SDS011;63820;65.654;21.944;2023-07-29T12:27:10;2.23;;;1.53;;
12675;SDS011;63820;65.654;21.944;2023-07-29T12:29:56;1.47;;;1.33;;
12675;SDS011;63820;65.654;21.944;2023-07-29T12:32:44;2.63;;;1.60;;
12675;SDS011;63820;65.654;21.944;2023-07-29T12:35:35;1.73;;;1.40;;
12675;SDS011;63820;65.654;21.944;2023-07-29T12:38:21;1.40;;;1.30;;
12675;SDS011;63820;65.654;21.944;2023-07-29T12:41:05;2.67;;;1.67;;
12675;SDS011;63820;65.654;21.944;2023-07-29T12:43:50;3.23;;;1.83;;
12675;SDS011;63820;65.654;21.944;2023-07-29T12:46:34;1.70;;;1.60;;
12675;SDS011;63820;65.654;21.944;2023-07-29T12:49:18;2.17;;;1.53;;
12675;SDS011;63820;65.654;21.944;2023-07-29T12:52:02;2.40;;;1.70;;
12675;SDS011;63820;65.654;21.944;2023-07-29T12:54:46;1.73;;;1.63;;
12675;SDS011;63820;65.654;21.944;2023-07-29T12:57:30;2.53;;;2.00;;
12675;SDS011;63820;65.654;21.944;2023-07-29T13:00:14;2.27;;;2.07;;
12675;SDS011;63820;65.654;21.944;2023-07-29T13:02:58;2.47;;;2.00;;
12675;SDS011;63820;65.654;21.944;2023-07-29T13:05:42;2.60;;;2.33;;
12675;SDS011;63820;65.654;21.944;2023-07-29T13:08:26;2.73;;;2.40;;
12675;SDS011;63820;65.654;21.944;2023-07-29T13:11:10;2.80;;;2.50;;
12675;SDS011;63820;65.654;21.944;2023-07-29T13:13:54;2.70;;;2.40;;
12675;SDS011;63820;65.654;21.944;2023-07-29T13:16:38;3.47;;;2.43;;
12675;SDS011;63820;65.654;21.944;2023-07-29T13:19:22;3.10;;;2.80;;
12675;SDS011;63820;65.654;21.944;2023-07-29T13:22:06;3.00;;;2.80;;
12675;SDS011;63820;65.654;21.944;2023-07-29T13:24:50;2.80;;;2.60;;
12675;SDS011;63820;65.654;21.944;2023-07-29T13:27:34;2.93;;;2.73;;
12675;SDS011;63820;65.654;21.944;2023-07-29T13:30:18;4.13;;;2.57;;
12675;SDS011;63820;65.654;21.944;2023-07-29T13:33:02;3.37;;;3.00;;
12675;SDS011;63820;65.654;21.944;2023-07-29T13:35:46;3.07;;;2.70;;
12675;SDS011;63820;65.654;21.944;2023-07-29T13:38:30;2.53;;;2.33;;
12675;SDS011;63820;65.654;21.944;2023-07-29T13:41:14;3.83;;;2.57;;
12675;SDS011;63820;65.654;21.944;2023-07-29T13:43:58;2.80;;;2.50;;
12675;SDS011;63820;65.654;21.944;2023-07-29T13:46:42;2.87;;;2.43;;
12675;SDS011;63820;65.654;21.944;2023-07-29T13:49:27;3.10;;;2.60;;
12675;SDS011;63820;65.654;21.944;2023-07-29T13:52:11;3.03;;;2.67;;
12675;SDS011;63820;65.654;21.944;2023-07-29T13:54:55;3.20;;;2.60;;
12675;SDS011;63820;65.654;21.944;2023-07-29T13:57:39;4.80;;;2.63;;
12675;SDS011;63820;65.654;21.944;2023-07-29T14:00:24;2.57;;;2.37;;
12675;SDS011;63820;65.654;21.944;2023-07-29T14:03:09;5.33;;;2.67;;
12675;SDS011;63820;65.654;21.944;2023-07-29T14:05:53;3.03;;;2.40;;
12675;SDS011;63820;65.654;21.944;2023-07-29T14:08:37;2.83;;;2.60;;
12675;SDS011;63820;65.654;21.944;2023-07-29T14:11:24;3.00;;;2.80;;
12675;SDS011;63820;65.654;21.944;2023-07-29T14:14:09;2.80;;;2.53;;
12675;SDS011;63820;65.654;21.944;2023-07-29T14:16:54;2.57;;;2.20;;
12675;SDS011;63820;65.654;21.944;2023-07-29T14:19:38;3.23;;;2.40;;
12675;SDS011;63820;65.654;21.944;2023-07-29T14:22:22;2.97;;;2.60;;
12675;SDS011;63820;65.654;21.944;2023-07-29T14:25:06;3.90;;;2.70;;
12675;SDS011;63820;65.654;21.944;2023-07-29T14:27:51;2.83;;;2.40;;
12675;SDS011;63820;65.654;21.944;2023-07-29T14:30:35;3.00;;;2.70;;
12675;SDS011;63820;65.654;21.944;2023-07-29T14:33:19;4.43;;;2.57;;
12675;SDS011;63820;65.654;21.944;2023-07-29T14:36:03;2.73;;;2.40;;
12675;SDS011;63820;65.654;21.944;2023-07-29T14:38:48;2.63;;;2.43;;
12675;SDS011;63820;65.654;21.944;2023-07-29T14:41:32;2.90;;;2.60;;
12675;SDS011;63820;65.654;21.944;2023-07-29T14:44:16;2.23;;;2.03;;
12675;SDS011;63820;65.654;21.944;2023-07-29T14:47:00;2.97;;;2.67;;
12675;SDS011;63820;65.654;21.944;2023-07-29T14:49:44;3.73;;;2.30;;
12675;SDS011;63820;65.654;21.944;2023-07-29T14:52:28;3.07;;;2.40;;
12675;SDS011;63820;65.654;21.944;2023-07-29T14:55:13;2.73;;;2.30;;
12675;SDS011;63820;65.654;21.944;2023-07-29T14:57:56;2.20;;;2.07;;
12675;SDS011;63820;65.654;21.944;2023-07-29T15:00:41;2.80;;;2.50;;
12675;SDS011;63820;65.654;21.944;2023-07-29T15:03:25;3.03;;;2.60;;
12675;SDS011;63820;65.654;21.944;2023-07-29T15:06:09;3.37;;;3.07;;
12675;SDS011;63820;65.654;21.944;2023-07-29T15:08:52;3.00;;;2.80;;
12675;SDS011;63820;65.654;21.944;2023-07-29T15:11:37;3.07;;;2.67;;
12675;SDS011;63820;65.654;21.944;2023-07-29T15:14:20;3.13;;;2.80;;
12675;SDS011;63820;65.654;21.944;2023-07-29T15:17:05;2.80;;;2.60;;
12675;SDS011;63820;65.654;21.944;2023-07-29T15:19:50;3.40;;;3.10;;
12675;SDS011;63820;65.654;21.944;2023-07-29T15:22:34;3.30;;;3.00;;
12675;SDS011;63820;65.654;21.944;2023-07-29T15:25:18;5.53;;;2.97;;
12675;SDS011;63820;65.654;21.944;2023-07-29T15:28:02;3.20;;;2.90;;
12675;SDS011;63820;65.654;21.944;2023-07-29T15:30:46;3.50;;;2.57;;
12675;SDS011;63820;65.654;21.944;2023-07-29T15:33:30;2.80;;;2.60;;
12675;SDS011;63820;65.654;21.944;2023-07-29T15:36:14;3.10;;;2.90;;
12675;SDS011;63820;65.654;21.944;2023-07-29T15:38:58;4.77;;;2.43;;
12675;SDS011;63820;65.654;21.944;2023-07-29T15:41:42;3.30;;;2.47;;
12675;SDS011;63820;65.654;21.944;2023-07-29T15:44:26;2.73;;;2.43;;
12675;SDS011;63820;65.654;21.944;2023-07-29T15:47:11;2.83;;;2.50;;
12675;SDS011;63820;65.654;21.944;2023-07-29T15:49:59;2.90;;;2.60;;
12675;SDS011;63820;65.654;21.944;2023-07-29T15:52:43;4.27;;;2.50;;
12675;SDS011;63820;65.654;21.944;2023-07-29T15:55:27;2.67;;;2.40;;
12675;SDS011;63820;65.654;21.944;2023-07-29T15:58:11;4.73;;;2.43;;
12675;SDS011;63820;65.654;21.944;2023-07-29T16:00:55;2.97;;;2.33;;
12675;SDS011;63820;65.654;21.944;2023-07-29T16:03:39;3.00;;;2.50;;
12675;SDS011;63820;65.654;21.944;2023-07-29T16:06:25;2.70;;;2.50;;
12675;SDS011;63820;65.654;21.944;2023-07-29T16:09:10;2.93;;;2.30;;
12675;SDS011;63820;65.654;21.944;2023-07-29T16:11:54;2.03;;;1.87;;
12675;SDS011;63820;65.654;21.944;2023-07-29T16:14:38;2.37;;;2.10;;
12675;SDS011;63820;65.654;21.944;2023-07-29T16:17:22;2.37;;;2.17;;
12675;SDS011;63820;65.654;21.944;2023-07-29T16:20:06;2.20;;;2.00;;
12675;SDS011;63820;65.654;21.944;2023-07-29T16:22:51;4.70;;;2.17;;
12675;SDS011;63820;65.654;21.944;2023-07-29T16:25:35;2.13;;;1.93;;
12675;SDS011;63820;65.654;21.944;2023-07-29T16:28:19;2.80;;;2.07;;
12675;SDS011;63820;65.654;21.944;2023-07-29T16:31:03;2.73;;;2.07;;
12675;SDS011;63820;65.654;21.944;2023-07-29T16:33:47;2.20;;;1.97;;